createdAt,value
2019-02-18T00:01:33.351Z,7.73
2019-02-18T00:04:04.256Z,8.40
2019-02-18T00:06:35.331Z,7.10
2019-02-18T00:09:06.743Z,7.40
2019-02-18T00:11:37.677Z,7.70
2019-02-18T00:14:08.590Z,6.83
2019-02-18T00:16:39.526Z,7.20
2019-02-18T00:19:10.415Z,7.13
2019-02-18T00:21:41.420Z,8.20
2019-02-18T00:24:12.567Z,7.43
2019-02-18T00:26:43.486Z,7.40
2019-02-18T00:29:14.381Z,7.30
2019-02-18T00:31:45.272Z,7.47
2019-02-18T00:34:16.225Z,8.07
2019-02-18T00:36:47.114Z,7.13
2019-02-18T00:39:18.142Z,7.17
2019-02-18T00:41:49.399Z,7.77
2019-02-18T00:44:20.384Z,7.07
2019-02-18T00:46:51.302Z,7.67
2019-02-18T00:49:22.277Z,7.20
2019-02-18T00:51:53.538Z,7.60
2019-02-18T00:54:24.489Z,7.13
2019-02-18T00:56:55.399Z,7.07
2019-02-18T00:59:26.844Z,6.83
2019-02-18T01:01:57.720Z,7.27
2019-02-18T01:04:28.609Z,7.53
2019-02-18T01:06:59.624Z,7.50
2019-02-18T01:09:30.510Z,7.67
2019-02-18T01:12:01.415Z,7.23
2019-02-18T01:14:32.767Z,7.63
2019-02-18T01:17:05.082Z,6.87
2019-02-18T01:19:37.032Z,6.97
2019-02-18T01:22:08.016Z,6.73
2019-02-18T01:24:38.941Z,6.80
2019-02-18T01:27:09.850Z,6.47
2019-02-18T01:29:40.859Z,6.97
2019-02-18T01:32:13.830Z,7.20
2019-02-18T01:34:44.814Z,5.80
2019-02-18T01:37:15.685Z,6.60
2019-02-18T01:39:46.660Z,6.60
2019-02-18T01:42:17.586Z,6.67
2019-02-18T01:44:48.500Z,6.57
2019-02-18T01:47:19.392Z,7.37
2019-02-18T01:49:50.329Z,6.77
2019-02-18T01:52:22.120Z,6.07
2019-02-18T01:54:52.966Z,6.67
2019-02-18T01:57:24.245Z,7.30
2019-02-18T01:59:55.430Z,5.90
2019-02-18T02:02:26.425Z,6.23
2019-02-18T02:04:57.307Z,6.40
2019-02-18T02:07:28.218Z,7.10
2019-02-18T02:09:59.136Z,6.23
2019-02-18T02:12:30.041Z,6.07
2019-02-18T02:15:02.113Z,6.67
2019-02-18T02:17:32.949Z,6.50
2019-02-18T02:20:04.064Z,5.90
2019-02-18T02:22:36.083Z,6.40
2019-02-18T02:25:07.007Z,5.53
2019-02-18T02:27:37.945Z,5.47
2019-02-18T02:30:09.718Z,5.23
2019-02-18T02:32:40.628Z,5.93
2019-02-18T02:35:11.556Z,6.77
2019-02-18T02:37:42.394Z,5.60
2019-02-18T02:40:13.346Z,6.00
2019-02-18T02:42:44.217Z,5.77
2019-02-18T02:45:15.087Z,5.80
2019-02-18T02:47:45.990Z,5.90
2019-02-18T02:50:16.883Z,5.73
2019-02-18T02:52:48.797Z,6.50
2019-02-18T02:55:20.875Z,6.43
2019-02-18T02:57:51.689Z,5.83
2019-02-18T03:00:22.983Z,5.90
2019-02-18T03:02:54.051Z,5.60
2019-02-18T03:05:25.185Z,5.00
2019-02-18T03:07:56.111Z,5.23
2019-02-18T03:10:27.130Z,5.90
2019-02-18T03:12:58.036Z,5.77
2019-02-18T03:15:30.109Z,6.03
2019-02-18T03:18:00.990Z,5.70
2019-02-18T03:20:32.940Z,5.67
2019-02-18T03:23:03.922Z,5.73
2019-02-18T03:25:34.850Z,5.00
2019-02-18T03:28:42.501Z,5.17
2019-02-18T03:31:18.406Z,5.77
2019-02-18T03:33:53.770Z,5.67
2019-02-18T03:36:24.691Z,4.77
2019-02-18T03:38:55.562Z,5.80
2019-02-18T03:41:26.457Z,5.57
2019-02-18T03:43:57.451Z,5.33
2019-02-18T03:46:28.343Z,4.77
2019-02-18T03:48:59.233Z,6.00
2019-02-18T03:51:30.102Z,5.20
2019-02-18T03:54:01.767Z,5.60
2019-02-18T03:56:33.789Z,5.73
2019-02-18T03:59:04.749Z,5.77
2019-02-18T04:01:36.225Z,6.07
2019-02-18T04:04:07.242Z,6.13
2019-02-18T04:06:38.140Z,6.10
2019-02-18T04:09:09.054Z,6.00
2019-02-18T04:11:40.074Z,6.13
2019-02-18T04:14:11.031Z,6.17
2019-02-18T04:16:41.904Z,4.83
2019-02-18T04:19:12.758Z,5.33
2019-02-18T04:21:44.835Z,6.20
2019-02-18T04:24:15.748Z,5.30
2019-02-18T04:26:46.668Z,6.10
2019-02-18T04:29:19.043Z,6.10
2019-02-18T04:31:50.246Z,5.57
2019-02-18T04:34:22.393Z,5.20
2019-02-18T04:36:53.293Z,5.73
2019-02-18T04:39:24.196Z,5.60
2019-02-18T04:41:55.104Z,6.33
2019-02-18T04:44:25.978Z,5.40
2019-02-18T04:46:56.863Z,6.27
2019-02-18T04:49:27.735Z,6.23
2019-02-18T04:51:58.659Z,5.93
2019-02-18T04:54:30.503Z,5.80
2019-02-18T04:57:01.449Z,5.60
2019-02-18T04:59:32.573Z,5.67
2019-02-18T05:02:03.712Z,5.57
2019-02-18T05:04:34.734Z,5.90
2019-02-18T05:07:05.631Z,5.80
2019-02-18T05:09:39.847Z,6.47
2019-02-18T05:12:10.098Z,5.80
2019-02-18T05:14:40.983Z,6.00
2019-02-18T05:17:11.853Z,5.60
2019-02-18T05:19:42.740Z,5.70
2019-02-18T05:22:13.612Z,5.97
2019-02-18T05:24:44.528Z,6.13
2019-02-18T05:27:15.432Z,5.97
2019-02-18T05:29:46.307Z,5.97
2019-02-18T05:32:17.183Z,6.07
2019-02-18T05:34:48.053Z,6.07
2019-02-18T05:37:21.678Z,5.97
2019-02-18T05:39:55.257Z,5.73
2019-02-18T05:42:25.172Z,5.47
2019-02-18T05:44:56.165Z,5.70
2019-02-18T05:47:27.044Z,6.63
2019-02-18T05:49:57.979Z,5.30
2019-02-18T05:52:28.893Z,6.50
2019-02-18T05:54:59.969Z,6.20
2019-02-18T05:57:30.887Z,6.40
2019-02-18T06:00:03.003Z,5.73
2019-02-18T06:02:34.394Z,6.13
2019-02-18T06:05:05.586Z,6.33
2019-02-18T06:07:36.562Z,6.13
2019-02-18T06:10:09.204Z,6.60
2019-02-18T06:12:40.067Z,6.27
2019-02-18T06:15:11.114Z,6.87
2019-02-18T06:17:41.990Z,6.70
2019-02-18T06:20:12.941Z,6.33
2019-02-18T06:22:46.492Z,6.17
2019-02-18T06:25:17.389Z,6.13
2019-02-18T06:27:48.313Z,6.43
2019-02-18T06:30:19.351Z,6.43
2019-02-18T06:32:50.399Z,5.87
2019-02-18T06:35:21.332Z,6.40
2019-02-18T06:37:52.383Z,6.33
2019-02-18T06:40:23.441Z,5.93
2019-02-18T06:42:54.467Z,6.40
2019-02-18T06:45:45.791Z,5.93
2019-02-18T06:48:33.825Z,5.33
2019-02-18T06:51:04.994Z,6.40
2019-02-18T06:53:36.072Z,6.03
2019-02-18T06:56:07.099Z,6.10
2019-02-18T06:58:52.699Z,6.07
2019-02-18T07:01:32.118Z,6.77
2019-02-18T07:04:17.370Z,6.97
2019-02-18T07:07:07.262Z,7.50
2019-02-18T07:10:06.558Z,7.87
2019-02-18T07:12:41.093Z,7.17
2019-02-18T07:15:14.981Z,7.40
2019-02-18T07:17:47.018Z,7.73
2019-02-18T07:20:17.899Z,8.23
2019-02-18T07:22:50.617Z,8.87
2019-02-18T07:25:21.614Z,7.70
2019-02-18T07:27:55.412Z,7.63
2019-02-18T07:30:26.333Z,8.20
2019-02-18T07:32:57.349Z,7.47
2019-02-18T07:35:28.317Z,7.57
2019-02-18T07:38:00.308Z,8.00
2019-02-18T07:40:31.381Z,7.67
2019-02-18T07:43:02.295Z,7.00
2019-02-18T07:45:34.714Z,6.73
2019-02-18T07:48:05.671Z,6.67
2019-02-18T07:50:36.658Z,7.70
2019-02-18T07:53:07.695Z,6.83
2019-02-18T07:55:38.845Z,8.07
2019-02-18T07:58:09.971Z,7.10
2019-02-18T08:00:41.063Z,8.20
2019-02-18T08:03:12.015Z,7.77
2019-02-18T08:05:43.306Z,7.13
2019-02-18T08:08:14.492Z,9.00
2019-02-18T08:10:45.817Z,7.77
2019-02-18T08:13:16.675Z,6.90
2019-02-18T08:15:47.562Z,7.00
2019-02-18T08:18:18.534Z,8.53
2019-02-18T08:20:51.451Z,7.73
2019-02-18T08:23:22.331Z,7.40
2019-02-18T08:25:53.313Z,7.90
2019-02-18T08:28:24.187Z,8.30
2019-02-18T08:30:55.104Z,7.63
2019-02-18T08:33:27.794Z,7.90
2019-02-18T08:35:58.897Z,8.13
2019-02-18T08:38:29.821Z,7.80
2019-02-18T08:41:01.032Z,7.33
2019-02-18T08:43:32.100Z,8.47
2019-02-18T08:46:05.415Z,8.20
2019-02-18T08:48:36.497Z,8.60
2019-02-18T08:51:10.339Z,7.60
2019-02-18T08:53:42.969Z,7.70
2019-02-18T08:56:14.114Z,7.23
2019-02-18T08:58:45.221Z,7.67
2019-02-18T09:01:16.340Z,7.60
2019-02-18T09:03:47.463Z,8.27
2019-02-18T09:06:18.955Z,8.27
2019-02-18T09:08:50.101Z,7.30
2019-02-18T09:11:21.179Z,8.63
2019-02-18T09:13:52.141Z,7.67
2019-02-18T09:16:23.097Z,7.53
2019-02-18T09:18:56.483Z,7.53
2019-02-18T09:21:28.741Z,7.90
2019-02-18T09:24:21.713Z,7.00
2019-02-18T09:26:55.116Z,7.43
2019-02-18T09:29:25.993Z,6.77
2019-02-18T09:31:56.873Z,8.23
2019-02-18T09:34:27.869Z,7.60
2019-02-18T09:36:58.817Z,6.43
2019-02-18T09:39:31.408Z,7.03
2019-02-18T09:42:02.596Z,7.13
2019-02-18T09:44:34.960Z,6.83
2019-02-18T09:47:05.868Z,6.97
2019-02-18T09:49:36.786Z,7.23
2019-02-18T09:52:07.779Z,7.33
2019-02-18T09:54:40.482Z,7.03
2019-02-18T09:57:11.865Z,6.73
2019-02-18T09:59:42.944Z,6.80
2019-02-18T10:02:13.914Z,6.83
2019-02-18T10:04:45.978Z,6.93
2019-02-18T10:07:18.584Z,7.30
2019-02-18T10:09:49.626Z,7.33
2019-02-18T10:12:20.533Z,7.37
2019-02-18T10:14:51.606Z,7.30
2019-02-18T10:17:22.476Z,7.37
2019-02-18T10:19:53.452Z,7.60
2019-02-18T10:22:26.726Z,6.47
2019-02-18T10:24:57.633Z,8.10
2019-02-18T10:27:28.758Z,8.30
2019-02-18T10:29:59.732Z,7.23
2019-02-18T10:32:30.982Z,8.95
2019-02-18T10:35:05.188Z,7.07
2019-02-18T10:37:36.471Z,8.73
2019-02-18T10:40:10.899Z,7.10
2019-02-18T10:42:42.037Z,6.67
2019-02-18T10:45:13.340Z,6.60
2019-02-18T10:47:44.432Z,6.40
2019-02-18T10:50:15.396Z,6.63
2019-02-18T10:52:46.391Z,6.20
2019-02-18T10:55:17.744Z,7.20
2019-02-18T10:57:48.693Z,8.28
2019-02-18T11:00:20.784Z,6.67
2019-02-18T11:02:51.786Z,7.03
2019-02-18T11:05:22.888Z,6.17
2019-02-18T11:07:54.213Z,6.63
2019-02-18T11:10:25.382Z,6.70
2019-02-18T11:12:56.440Z,5.77
2019-02-18T11:15:27.952Z,6.10
2019-02-18T11:18:00.969Z,6.60
2019-02-18T11:20:32.189Z,8.33
2019-02-18T11:23:03.218Z,8.93
2019-02-18T11:25:34.196Z,8.08
2019-02-18T11:28:05.531Z,8.80
2019-02-18T11:30:38.966Z,7.03
2019-02-18T11:33:09.056Z,7.43
2019-02-18T11:35:39.917Z,6.70
2019-02-18T11:38:11.085Z,6.67
2019-02-18T11:40:42.063Z,7.00
2019-02-18T11:43:12.989Z,7.33
2019-02-18T11:45:43.997Z,7.10
2019-02-18T11:48:14.954Z,7.57
2019-02-18T11:50:45.818Z,7.10
2019-02-18T11:53:16.860Z,6.80
2019-02-18T11:55:47.802Z,7.07
2019-02-18T11:58:21.496Z,6.60
2019-02-18T12:00:52.381Z,7.17
2019-02-18T12:03:23.310Z,6.57
2019-02-18T12:05:54.171Z,7.57
2019-02-18T12:08:26.159Z,7.23
2019-02-18T12:10:57.331Z,7.00
2019-02-18T12:13:28.407Z,7.60
2019-02-18T12:15:59.418Z,8.00
2019-02-18T12:18:30.724Z,6.40
2019-02-18T12:21:01.601Z,7.60
2019-02-18T12:23:32.587Z,6.97
2019-02-18T12:26:03.625Z,7.10
2019-02-18T12:28:34.525Z,6.43
2019-02-18T12:31:06.673Z,6.40
2019-02-18T12:33:37.577Z,6.30
2019-02-18T12:36:08.537Z,6.50
2019-02-18T12:38:41.064Z,6.20
2019-02-18T12:41:12.927Z,5.83
2019-02-18T12:43:45.310Z,6.13
2019-02-18T12:46:16.290Z,5.60
2019-02-18T12:48:47.302Z,6.57
2019-02-18T12:51:18.303Z,6.10
2019-02-18T12:53:49.258Z,6.07
2019-02-18T12:56:20.260Z,6.07
2019-02-18T12:58:54.677Z,6.43
2019-02-18T13:01:23.918Z,6.50
2019-02-18T13:03:54.805Z,5.73
2019-02-18T13:06:29.367Z,6.90
2019-02-18T13:09:00.890Z,6.90
2019-02-18T13:11:33.889Z,5.87
2019-02-18T13:14:04.808Z,5.43
2019-02-18T13:16:35.728Z,5.83
2019-02-18T13:19:06.727Z,7.30
2019-02-18T13:21:37.739Z,7.00
2019-02-18T13:24:08.675Z,5.37
2019-02-18T13:26:39.862Z,7.33
2019-02-18T13:29:10.935Z,6.90
2019-02-18T13:31:41.892Z,6.67
2019-02-18T13:34:12.891Z,7.23
2019-02-18T13:38:58.157Z,6.53
2019-02-18T13:41:29.178Z,6.70
2019-02-18T13:44:00.106Z,6.87
2019-02-18T13:46:31.218Z,7.12
2019-02-18T13:49:02.186Z,6.97
2019-02-18T13:51:34.256Z,6.27
2019-02-18T13:54:05.339Z,6.40
2019-02-18T13:56:36.565Z,5.20
2019-02-18T13:59:07.709Z,5.37
2019-02-18T14:01:38.665Z,5.30
2019-02-18T14:04:09.589Z,4.67
2019-02-18T14:06:40.525Z,5.27
2019-02-18T14:09:13.282Z,4.77
2019-02-18T14:11:44.285Z,4.60
2019-02-18T14:14:15.180Z,5.00
2019-02-18T14:16:48.409Z,4.80
2019-02-18T14:19:19.374Z,4.83
2019-02-18T14:21:50.481Z,5.40
2019-02-18T14:24:21.545Z,4.80
2019-02-18T14:26:52.441Z,4.77
2019-02-18T14:29:23.454Z,4.73
2019-02-18T14:34:24.547Z,4.27
2019-02-18T14:36:55.471Z,4.07
2019-02-18T14:51:57.877Z,4.00
2019-02-18T14:54:28.763Z,4.00
2019-02-18T14:56:59.666Z,4.37
2019-02-18T14:59:30.869Z,4.20
2019-02-18T15:02:02.124Z,5.13
2019-02-18T15:04:33.008Z,4.30
2019-02-18T15:07:05.698Z,4.63
2019-02-18T15:09:37.468Z,4.20
2019-02-18T15:12:08.533Z,5.17
2019-02-18T15:14:39.745Z,4.03
2019-02-18T15:47:14.533Z,4.63
2019-02-18T15:49:45.961Z,5.53
2019-02-18T15:52:16.946Z,5.90
2019-02-18T15:54:49.702Z,5.50
2019-02-18T15:57:20.895Z,5.23
2019-02-18T15:59:51.795Z,4.80
2019-02-18T16:02:22.682Z,5.07
2019-02-18T16:04:53.582Z,4.47
2019-02-18T16:07:24.950Z,4.60
2019-02-18T16:09:57.656Z,5.40
2019-02-18T16:12:28.637Z,4.90
2019-02-18T16:14:59.564Z,5.93
2019-02-18T16:17:30.472Z,5.23
2019-02-18T16:20:01.922Z,5.47
2019-02-18T16:22:33.875Z,5.53
2019-02-18T16:25:06.606Z,5.50
2019-02-18T16:27:37.560Z,5.63
2019-02-18T16:30:10.899Z,4.97
2019-02-18T16:32:42.208Z,5.30
2019-02-18T16:35:13.267Z,5.30
2019-02-18T16:37:44.552Z,5.97
2019-02-18T16:40:16.659Z,5.60
2019-02-18T16:42:47.624Z,5.30
2019-02-18T16:45:18.542Z,5.67
2019-02-18T16:47:55.596Z,5.30
2019-02-18T16:50:26.634Z,4.87
2019-02-18T16:52:57.749Z,4.87
2019-02-18T16:55:28.740Z,6.13
2019-02-18T16:57:59.945Z,6.33
2019-02-18T17:00:33.550Z,6.67
2019-02-18T17:03:06.408Z,5.80
2019-02-18T17:05:37.496Z,5.70
2019-02-18T17:08:09.542Z,5.47
2019-02-18T17:10:41.438Z,5.87
2019-02-18T17:13:12.571Z,5.27
2019-02-18T17:15:43.521Z,5.10
2019-02-18T17:18:14.455Z,5.90
2019-02-18T17:20:47.723Z,6.00
2019-02-18T17:23:18.708Z,5.63
2019-02-18T17:25:49.806Z,6.03
2019-02-18T17:28:20.943Z,6.73
2019-02-18T17:30:51.905Z,6.77
2019-02-18T17:33:23.030Z,7.20
2019-02-18T17:35:54.192Z,6.70
2019-02-18T17:38:25.301Z,6.90
2019-02-18T17:40:56.348Z,6.50
2019-02-18T17:43:27.276Z,5.87
2019-02-18T17:45:58.251Z,7.03
2019-02-18T17:48:29.536Z,6.47
2019-02-18T17:51:02.090Z,6.20
2019-02-18T17:53:33.121Z,6.50
2019-02-18T17:56:04.248Z,5.90
2019-02-18T17:58:35.328Z,5.40
2019-02-18T18:01:06.306Z,5.50
2019-02-18T18:03:38.982Z,5.83
2019-02-18T18:06:10.019Z,6.17
2019-02-18T18:08:40.958Z,5.70
2019-02-18T18:11:13.505Z,6.60
2019-02-18T18:13:44.511Z,7.27
2019-02-18T18:16:15.533Z,6.40
2019-02-18T18:18:46.657Z,5.93
2019-02-18T18:21:17.674Z,6.40
2019-02-18T18:23:49.027Z,5.87
2019-02-18T18:26:20.044Z,5.27
2019-02-18T18:28:51.057Z,5.67
2019-02-18T18:31:22.048Z,5.00
2019-02-18T18:33:53.112Z,5.10
2019-02-18T18:36:24.195Z,5.37
2019-02-18T18:38:55.204Z,4.60
2019-02-18T18:41:26.254Z,4.77
2019-02-18T18:43:57.242Z,5.17
2019-02-18T18:46:28.365Z,4.83
2019-02-18T18:48:59.338Z,4.77
2019-02-18T18:51:30.430Z,4.83
2019-02-18T18:54:01.393Z,4.70
2019-02-18T18:56:32.503Z,5.53
2019-02-18T18:59:03.524Z,4.93
2019-02-18T19:01:35.615Z,5.10
2019-02-18T19:04:08.425Z,6.03
2019-02-18T19:06:39.690Z,5.93
2019-02-18T19:09:10.919Z,6.63
2019-02-18T19:11:44.194Z,6.80
2019-02-18T19:14:15.416Z,7.07
2019-02-18T19:16:46.890Z,5.83
2019-02-18T19:19:21.648Z,5.87
2019-02-18T19:21:52.775Z,6.20
2019-02-18T19:24:24.110Z,6.57
2019-02-18T19:26:56.776Z,6.20
2019-02-18T19:29:28.354Z,5.67
2019-02-18T19:31:59.834Z,5.70
2019-02-18T19:34:33.883Z,6.07
2019-02-18T19:37:06.798Z,6.13
2019-02-18T19:39:38.152Z,6.00
2019-02-18T19:42:09.462Z,6.47
2019-02-18T19:44:40.606Z,7.00
2019-02-18T19:47:11.871Z,6.90
2019-02-18T19:49:43.070Z,6.17
2019-02-18T19:52:14.185Z,6.27
2019-02-18T19:54:45.387Z,6.77
2019-02-18T19:57:18.172Z,7.03
2019-02-18T19:59:49.217Z,7.60
2019-02-18T20:02:20.256Z,8.10
2019-02-18T20:04:51.501Z,8.40
2019-02-18T20:07:22.562Z,9.97
2019-02-18T20:09:53.666Z,11.13
2019-02-18T20:12:25.541Z,9.50
2019-02-18T20:14:56.702Z,7.30
2019-02-18T20:17:28.239Z,6.50
2019-02-18T20:20:01.030Z,7.40
2019-02-18T20:22:32.377Z,6.13
2019-02-18T20:25:03.378Z,6.60
2019-02-18T20:27:34.696Z,6.07
2019-02-18T20:30:06.349Z,6.73
2019-02-18T20:32:37.414Z,6.73
2019-02-18T20:35:09.241Z,6.80
2019-02-18T20:37:40.466Z,7.20
2019-02-18T20:40:11.811Z,6.50
2019-02-18T20:42:43.191Z,6.30
2019-02-18T20:45:15.416Z,6.53
2019-02-18T20:47:46.493Z,6.27
2019-02-18T20:50:17.525Z,6.63
2019-02-18T20:52:48.774Z,6.03
2019-02-18T20:55:20.152Z,6.37
2019-02-18T20:57:52.683Z,6.97
2019-02-18T21:00:24.054Z,7.23
2019-02-18T21:02:55.216Z,6.43
2019-02-18T21:05:26.289Z,6.57
2019-02-18T21:07:57.697Z,6.47
2019-02-18T21:10:28.740Z,6.87
2019-02-18T21:13:00.125Z,6.90
2019-02-18T21:15:31.425Z,6.83
2019-02-18T21:18:03.616Z,6.43
2019-02-18T21:20:34.974Z,6.97
2019-02-18T21:23:06.329Z,6.10
2019-02-18T21:25:37.263Z,7.40
2019-02-18T21:28:08.390Z,6.90
2019-02-18T21:30:39.406Z,6.00
2019-02-18T21:33:10.835Z,6.53
2019-02-18T21:35:42.900Z,7.03
2019-02-18T21:38:13.842Z,7.20
2019-02-18T21:40:44.852Z,6.33
2019-02-18T21:43:16.334Z,6.40
2019-02-18T21:45:48.623Z,6.90
2019-02-18T21:48:19.597Z,6.63
2019-02-18T21:50:50.623Z,6.53
2019-02-18T21:53:21.664Z,7.03
2019-02-18T21:55:53.732Z,7.20
2019-02-18T21:58:25.503Z,6.33
2019-02-18T22:00:56.671Z,6.33
2019-02-18T22:03:27.742Z,6.80
2019-02-18T22:05:58.740Z,6.33
2019-02-18T22:08:30.771Z,6.07
2019-02-18T22:11:02.160Z,7.33
2019-02-18T22:13:34.411Z,5.90
2019-02-18T22:16:05.465Z,5.70
2019-02-18T22:18:36.459Z,6.50
2019-02-18T22:21:07.529Z,6.70
2019-02-18T22:23:38.603Z,6.63
2019-02-18T22:26:09.502Z,6.50
2019-02-18T22:28:40.417Z,6.77
2019-02-18T22:31:11.334Z,6.23
2019-02-18T22:33:42.210Z,6.20
2019-02-18T22:36:13.250Z,7.13
2019-02-18T22:38:45.758Z,6.57
2019-02-18T22:41:16.600Z,6.37
2019-02-18T22:43:47.527Z,6.43
2019-02-18T22:46:18.455Z,6.67
2019-02-18T22:48:49.443Z,6.77
2019-02-18T22:51:20.483Z,6.23
2019-02-18T22:53:51.408Z,6.00
2019-02-18T22:56:22.456Z,6.70
2019-02-18T22:58:54.463Z,7.03
2019-02-18T23:01:25.580Z,6.80
2019-02-18T23:03:56.492Z,7.03
2019-02-18T23:06:27.959Z,6.27
2019-02-18T23:08:58.899Z,6.33
2019-02-18T23:11:30.936Z,7.47
2019-02-18T23:14:02.127Z,6.50
2019-02-18T23:16:33.096Z,6.23
2019-02-18T23:19:04.419Z,6.57
2019-02-18T23:24:26.855Z,7.20
2019-02-18T23:26:57.839Z,7.17
2019-02-18T23:29:29.102Z,6.53
2019-02-18T23:32:00.201Z,6.73
2019-02-18T23:34:31.113Z,7.13
2019-02-18T23:37:02.167Z,6.40
2019-02-18T23:39:33.158Z,6.50
2019-02-18T23:42:04.046Z,6.00
2019-02-18T23:44:35.013Z,6.77
2019-02-18T23:47:05.943Z,6.33
2019-02-18T23:49:36.975Z,6.33
2019-02-18T23:52:08.043Z,7.27
2019-02-18T23:54:38.958Z,6.10
2019-02-18T23:57:10.014Z,6.20
2019-02-18T23:59:40.923Z,5.90
